createdAt,value
2023-05-21T00:00:15.564Z,20.40
2023-05-21T00:03:03.674Z,21.24
2023-05-21T00:05:32.711Z,21.63
2023-05-21T00:08:00.745Z,21.83
2023-05-21T00:10:28.664Z,20.92
2023-05-21T00:12:56.563Z,19.83
2023-05-21T00:15:24.632Z,19.36
2023-05-21T00:17:52.897Z,20.20
2023-05-21T00:20:20.875Z,20.96
2023-05-21T00:22:49.269Z,21.44
2023-05-21T00:25:17.257Z,21.78
2023-05-21T00:27:45.363Z,21.78
2023-05-21T00:30:13.344Z,20.82
2023-05-21T00:32:41.313Z,19.80
2023-05-21T00:35:09.504Z,19.41
2023-05-21T00:37:38.292Z,20.25
2023-05-21T00:40:08.851Z,21.06
2023-05-21T00:42:40.758Z,21.60
2023-05-21T00:45:09.346Z,21.64
2023-05-21T00:47:37.726Z,20.68
2023-05-21T00:50:06.715Z,19.72
2023-05-21T00:52:41.918Z,19.35
2023-05-21T00:55:11.139Z,20.48
2023-05-21T00:57:40.273Z,21.30
2023-05-21T01:00:09.158Z,21.46
2023-05-21T01:02:38.314Z,20.51
2023-05-21T01:05:07.327Z,19.56
2023-05-21T01:07:39.087Z,19.31
2023-05-21T01:10:09.817Z,20.54
2023-05-21T01:12:40.395Z,21.41
2023-05-21T01:15:09.149Z,21.52
2023-05-21T01:17:39.240Z,20.54
2023-05-21T01:20:11.242Z,19.58
2023-05-21T01:22:43.835Z,19.22
2023-05-21T01:25:12.295Z,20.16
2023-05-21T01:27:40.344Z,21.05
2023-05-21T01:30:08.844Z,21.35
2023-05-21T01:32:48.845Z,20.39
2023-05-21T01:35:26.312Z,19.37
2023-05-21T01:38:13.304Z,19.08
2023-05-21T01:40:55.689Z,20.16
2023-05-21T01:43:25.138Z,21.03
2023-05-21T01:45:56.012Z,21.22
2023-05-21T01:48:27.385Z,20.27
2023-05-21T01:51:01.997Z,19.35
2023-05-21T01:53:30.062Z,18.63
2023-05-21T01:55:59.437Z,18.50
2023-05-21T01:58:27.731Z,19.66
2023-05-21T02:00:57.174Z,20.59
2023-05-21T02:03:28.214Z,20.85
2023-05-21T02:05:57.011Z,19.98
2023-05-21T02:08:25.722Z,19.14
2023-05-21T02:10:53.682Z,18.50
2023-05-21T02:13:25.748Z,18.36
2023-05-21T02:15:55.240Z,19.54
2023-05-21T02:18:23.857Z,20.61
2023-05-21T02:20:51.777Z,20.86
2023-05-21T02:23:19.790Z,20.03
2023-05-21T02:25:47.781Z,19.15
2023-05-21T02:28:16.030Z,18.51
2023-05-21T02:30:44.000Z,18.38
2023-05-21T02:33:14.519Z,19.50
2023-05-21T02:35:44.103Z,20.41
2023-05-21T02:38:13.783Z,20.69
2023-05-21T02:40:42.116Z,19.84
2023-05-21T02:43:10.104Z,18.96
2023-05-21T02:45:38.491Z,18.32
2023-05-21T02:48:06.886Z,18.12
2023-05-21T02:50:37.464Z,19.20
2023-05-21T02:53:06.420Z,20.16
2023-05-21T02:55:35.466Z,20.46
2023-05-21T02:58:03.703Z,19.61
2023-05-21T03:00:31.989Z,18.74
2023-05-21T03:03:01.375Z,18.09
2023-05-21T03:05:29.390Z,17.88
2023-05-21T03:07:57.624Z,18.95
2023-05-21T03:10:25.673Z,19.94
2023-05-21T03:12:55.007Z,20.31
2023-05-21T03:15:25.986Z,19.48
2023-05-21T03:17:54.498Z,18.53
2023-05-21T03:20:24.675Z,17.83
2023-05-21T03:22:53.116Z,17.66
2023-05-21T03:25:21.783Z,18.70
2023-05-21T03:27:49.982Z,19.65
2023-05-21T03:30:38.459Z,19.85
2023-05-21T03:33:32.496Z,18.79
2023-05-21T03:36:01.292Z,17.98
2023-05-21T03:38:31.671Z,17.70
2023-05-21T03:40:59.689Z,18.80
2023-05-21T03:43:28.092Z,19.80
2023-05-21T03:45:56.491Z,20.19
2023-05-21T03:48:53.312Z,19.13
2023-05-21T03:51:22.968Z,18.23
2023-05-21T03:53:51.758Z,17.60
2023-05-21T03:56:19.798Z,17.47
2023-05-21T03:58:48.950Z,18.59
2023-05-21T04:01:17.934Z,19.63
2023-05-21T04:03:47.249Z,20.03
2023-05-21T04:06:16.085Z,19.21
2023-05-21T04:08:44.694Z,18.28
2023-05-21T04:11:12.701Z,17.65
2023-05-21T04:13:40.724Z,17.54
2023-05-21T04:16:14.747Z,18.63
2023-05-21T04:18:45.536Z,19.78
2023-05-21T04:21:14.147Z,20.18
2023-05-21T04:23:42.276Z,19.39
2023-05-21T04:26:36.586Z,18.44
2023-05-21T04:29:05.141Z,17.91
2023-05-21T04:31:33.632Z,17.55
2023-05-21T04:34:02.265Z,17.60
2023-05-21T04:36:30.601Z,19.02
2023-05-21T04:38:58.603Z,20.05
2023-05-21T04:41:26.873Z,19.48
2023-05-21T04:43:55.482Z,18.74
2023-05-21T04:46:25.424Z,18.21
2023-05-21T04:48:58.245Z,17.86
2023-05-21T04:51:26.901Z,17.62
2023-05-21T04:53:54.925Z,17.83
2023-05-21T04:56:22.976Z,19.25
2023-05-21T04:58:50.937Z,20.25
2023-05-21T05:01:19.224Z,19.76
2023-05-21T05:03:47.417Z,19.11
2023-05-21T05:06:15.523Z,18.67
2023-05-21T05:08:43.623Z,18.39
2023-05-21T05:11:12.281Z,18.17
2023-05-21T05:13:43.845Z,18.03
2023-05-21T05:16:13.090Z,17.93
2023-05-21T05:18:42.695Z,18.51
2023-05-21T05:21:11.106Z,19.93
2023-05-21T05:23:39.058Z,20.74
2023-05-21T05:26:08.514Z,20.21
2023-05-21T05:28:36.554Z,19.59
2023-05-21T05:31:04.801Z,19.17
2023-05-21T05:33:33.544Z,18.90
2023-05-21T05:36:01.641Z,18.70
2023-05-21T05:38:29.737Z,18.54
2023-05-21T05:40:57.834Z,18.45
2023-05-21T05:43:26.675Z,18.38
2023-05-21T05:45:56.543Z,18.32
2023-05-21T05:48:25.036Z,18.31
2023-05-21T05:50:55.077Z,18.63
2023-05-21T05:53:23.838Z,20.14
2023-05-21T05:55:51.883Z,21.31
2023-05-21T05:58:19.930Z,20.97
2023-05-21T06:00:54.744Z,20.37
2023-05-21T06:03:22.805Z,20.01
2023-05-21T06:05:53.718Z,19.80
2023-05-21T06:08:23.436Z,19.67
2023-05-21T06:10:51.486Z,19.61
2023-05-21T06:13:19.598Z,19.59
2023-05-21T06:15:47.694Z,19.59
2023-05-21T06:18:16.012Z,19.57
2023-05-21T06:20:44.061Z,19.58
2023-05-21T06:23:12.814Z,19.63
2023-05-21T06:25:42.594Z,19.70
2023-05-21T06:28:10.638Z,19.75
2023-05-21T06:30:39.370Z,19.82
2023-05-21T06:33:07.740Z,19.92
2023-05-21T06:35:37.589Z,20.02
2023-05-21T06:38:06.233Z,20.10
2023-05-21T06:40:34.930Z,20.16
2023-05-21T06:43:05.021Z,20.24
2023-05-21T06:45:51.754Z,20.34
2023-05-21T06:48:37.306Z,20.43
2023-05-21T06:51:05.502Z,20.50
2023-05-21T06:53:33.470Z,20.58
2023-05-21T06:56:01.786Z,20.65
2023-05-21T06:58:42.536Z,20.71
2023-05-21T07:01:12.033Z,20.77
2023-05-21T07:03:40.208Z,20.83
2023-05-21T07:06:09.362Z,20.91
2023-05-21T07:08:37.383Z,20.97
2023-05-21T07:11:05.520Z,21.03
2023-05-21T07:13:36.313Z,21.13
2023-05-21T07:16:04.921Z,21.24
2023-05-21T07:18:32.922Z,21.35
2023-05-21T07:21:01.174Z,21.43
2023-05-21T07:23:29.381Z,21.53
2023-05-21T07:25:57.401Z,21.63
2023-05-21T07:28:25.788Z,21.69
2023-05-21T07:30:53.961Z,21.74
2023-05-21T07:33:27.172Z,21.78
2023-05-21T07:35:55.315Z,21.84
2023-05-21T07:38:23.357Z,21.93
2023-05-21T07:40:51.361Z,22.06
2023-05-21T07:43:19.328Z,22.18
2023-05-21T07:45:47.429Z,22.30
2023-05-21T07:48:16.118Z,22.42
2023-05-21T07:50:53.210Z,22.53
2023-05-21T07:53:21.413Z,22.63
2023-05-21T07:55:50.540Z,22.73
2023-05-21T07:58:23.562Z,22.82
2023-05-21T08:00:51.807Z,22.91
2023-05-21T08:03:20.578Z,23.01
2023-05-21T08:05:49.307Z,23.10
2023-05-21T08:08:22.248Z,23.21
2023-05-21T08:10:53.193Z,23.31
2023-05-21T08:13:22.364Z,23.39
2023-05-21T08:15:52.860Z,23.44
2023-05-21T08:18:24.110Z,23.51
2023-05-21T08:20:52.994Z,23.58
2023-05-21T08:23:21.408Z,23.66
2023-05-21T08:25:53.747Z,23.74
2023-05-21T08:28:23.680Z,23.81
2023-05-21T08:30:52.740Z,23.87
2023-05-21T08:33:23.162Z,23.97
2023-05-21T08:35:51.643Z,24.08
2023-05-21T08:38:24.343Z,24.12
2023-05-21T08:41:01.218Z,24.14
2023-05-21T08:43:31.446Z,24.22
2023-05-21T08:46:01.012Z,24.32
2023-05-21T08:48:32.781Z,24.37
2023-05-21T08:51:01.617Z,24.42
2023-05-21T08:53:35.587Z,24.52
2023-05-21T08:56:07.037Z,24.57
2023-05-21T08:58:55.416Z,24.56
2023-05-21T09:01:28.133Z,24.64
2023-05-21T09:04:19.092Z,24.66
2023-05-21T09:06:50.532Z,24.77
2023-05-21T09:09:33.351Z,24.86
2023-05-21T09:12:01.922Z,24.85
2023-05-21T09:14:31.185Z,24.79
2023-05-21T09:17:15.459Z,24.82
2023-05-21T09:20:16.699Z,24.89
2023-05-21T09:22:55.754Z,24.93
2023-05-21T09:25:28.415Z,24.95
2023-05-21T09:27:57.422Z,24.93
2023-05-21T09:30:28.701Z,24.99
2023-05-21T09:33:00.283Z,25.08
2023-05-21T09:35:29.382Z,25.13
2023-05-21T09:38:03.664Z,25.19
2023-05-21T09:40:35.700Z,25.27
2023-05-21T09:43:05.366Z,25.29
2023-05-21T09:45:34.541Z,25.34
2023-05-21T09:48:03.587Z,25.39
2023-05-21T09:50:36.588Z,25.46
2023-05-21T09:53:12.651Z,25.48
2023-05-21T09:55:42.042Z,25.47
2023-05-21T09:58:11.271Z,25.54
2023-05-21T10:00:40.265Z,25.66
2023-05-21T10:03:10.070Z,25.82
2023-05-21T10:05:38.731Z,25.92
2023-05-21T10:08:09.292Z,25.94
2023-05-21T10:10:40.916Z,26.00
2023-05-21T10:13:11.553Z,26.09
2023-05-21T10:15:46.477Z,26.14
2023-05-21T10:18:17.130Z,26.12
2023-05-21T10:20:46.651Z,26.14
2023-05-21T10:23:14.619Z,26.29
2023-05-21T10:25:43.092Z,26.41
2023-05-21T10:28:16.235Z,26.51
2023-05-21T10:30:45.020Z,26.61
2023-05-21T10:33:16.826Z,26.65
2023-05-21T10:35:48.301Z,26.72
2023-05-21T10:38:19.385Z,26.82
2023-05-21T10:40:49.671Z,26.92
2023-05-21T10:43:35.983Z,27.00
2023-05-21T10:46:23.525Z,27.03
2023-05-21T10:49:04.841Z,27.02
2023-05-21T10:52:04.655Z,26.98
2023-05-21T10:55:06.512Z,26.90
2023-05-21T10:57:44.836Z,26.82
2023-05-21T11:00:16.375Z,26.83
2023-05-21T11:02:46.087Z,26.91
2023-05-21T11:05:14.391Z,26.95
2023-05-21T11:07:54.019Z,26.90
2023-05-21T11:10:41.628Z,26.86
2023-05-21T11:13:25.042Z,26.89
2023-05-21T11:16:05.556Z,26.87
2023-05-21T11:18:36.955Z,26.82
2023-05-21T11:21:14.034Z,26.70
2023-05-21T11:23:49.677Z,26.59
2023-05-21T11:26:26.478Z,26.67
2023-05-21T11:29:03.494Z,26.71
2023-05-21T11:31:39.738Z,26.78
2023-05-21T11:34:28.885Z,26.92
2023-05-21T11:37:25.110Z,27.10
2023-05-21T11:39:53.611Z,27.30
2023-05-21T11:42:32.711Z,27.41
2023-05-21T11:45:03.876Z,27.53
2023-05-21T11:47:32.878Z,27.67
2023-05-21T11:50:03.527Z,27.67
2023-05-21T11:52:33.071Z,27.67
2023-05-21T11:55:01.193Z,27.66
2023-05-21T11:57:32.883Z,27.68
2023-05-21T12:00:06.451Z,27.60
2023-05-21T12:03:01.307Z,27.47
2023-05-21T12:05:29.337Z,27.49
2023-05-21T12:07:58.778Z,27.57
2023-05-21T12:10:26.843Z,27.67
2023-05-21T12:12:57.260Z,27.74
2023-05-21T12:15:27.205Z,27.72
2023-05-21T12:18:01.366Z,27.64
2023-05-21T12:20:29.458Z,27.61
2023-05-21T12:22:59.080Z,27.56
2023-05-21T12:25:28.397Z,27.65
2023-05-21T12:27:58.406Z,27.83
2023-05-21T12:30:27.240Z,27.99
2023-05-21T12:32:58.492Z,28.11
2023-05-21T12:35:26.625Z,28.09
2023-05-21T12:37:54.814Z,28.06
2023-05-21T12:40:37.468Z,28.07
2023-05-21T12:43:06.198Z,28.10
2023-05-21T12:45:34.458Z,28.06
2023-05-21T12:48:05.684Z,28.02
2023-05-21T12:50:33.962Z,28.03
2023-05-21T12:53:01.966Z,28.20
2023-05-21T12:55:33.340Z,28.28
2023-05-21T12:58:10.830Z,28.23
2023-05-21T13:00:43.642Z,28.22
2023-05-21T13:03:11.780Z,28.28
2023-05-21T13:05:42.764Z,28.45
2023-05-21T13:08:11.437Z,28.63
2023-05-21T13:10:39.718Z,28.74
2023-05-21T13:13:08.380Z,28.85
2023-05-21T13:15:36.425Z,28.88
2023-05-21T13:18:04.471Z,28.92
2023-05-21T13:20:35.045Z,28.96
2023-05-21T13:23:09.824Z,29.05
2023-05-21T13:25:40.057Z,29.17
2023-05-21T13:28:15.419Z,29.21
2023-05-21T13:30:43.632Z,28.99
2023-05-21T13:33:12.403Z,28.79
2023-05-21T13:35:40.973Z,28.69
2023-05-21T13:38:09.029Z,28.61
2023-05-21T13:40:39.049Z,28.61
2023-05-21T13:43:07.714Z,28.58
2023-05-21T13:45:35.908Z,28.57
2023-05-21T13:48:04.127Z,28.69
2023-05-21T13:50:32.137Z,28.82
2023-05-21T13:53:00.236Z,29.01
2023-05-21T13:55:28.195Z,29.05
2023-05-21T13:57:56.118Z,29.06
2023-05-21T14:00:24.119Z,29.06
2023-05-21T14:02:52.495Z,28.98
2023-05-21T14:05:20.897Z,28.94
2023-05-21T14:07:48.954Z,28.85
2023-05-21T14:10:17.292Z,28.79
2023-05-21T14:12:46.166Z,28.71
2023-05-21T14:15:14.326Z,28.68
2023-05-21T14:17:42.524Z,28.75
2023-05-21T14:20:11.261Z,28.88
2023-05-21T14:22:39.313Z,28.96
2023-05-21T14:25:07.624Z,29.00
2023-05-21T14:27:38.108Z,29.02
2023-05-21T14:30:07.021Z,29.06
2023-05-21T14:32:35.087Z,29.11
2023-05-21T14:35:03.233Z,29.13
2023-05-21T14:37:31.328Z,29.20
2023-05-21T14:39:59.325Z,29.23
2023-05-21T14:42:27.311Z,29.21
2023-05-21T14:44:55.312Z,29.19
2023-05-21T14:47:26.193Z,29.15
2023-05-21T14:49:54.238Z,29.07
2023-05-21T14:52:22.236Z,28.94
2023-05-21T14:54:50.188Z,28.83
2023-05-21T14:57:18.164Z,28.73
2023-05-21T14:59:46.437Z,28.67
2023-05-21T15:02:14.675Z,28.54
2023-05-21T15:04:42.737Z,28.47
2023-05-21T15:07:10.937Z,28.60
2023-05-21T15:09:38.874Z,28.59
2023-05-21T15:12:06.989Z,28.45
2023-05-21T15:14:34.922Z,28.30
2023-05-21T15:17:03.222Z,28.20
2023-05-21T15:19:31.375Z,28.09
2023-05-21T15:22:01.072Z,27.96
2023-05-21T15:24:30.926Z,27.86
2023-05-21T15:26:58.903Z,27.94
2023-05-21T15:29:27.017Z,28.08
2023-05-21T15:31:55.038Z,28.23
2023-05-21T15:34:23.174Z,28.39
2023-05-21T15:36:51.186Z,28.52
2023-05-21T15:39:19.204Z,28.60
2023-05-21T15:41:47.163Z,28.65
2023-05-21T15:44:15.352Z,28.58
2023-05-21T15:46:43.409Z,28.38
2023-05-21T15:49:11.414Z,28.28
2023-05-21T15:51:40.452Z,28.29
2023-05-21T15:54:08.419Z,28.31
2023-05-21T15:56:36.553Z,28.28
2023-05-21T15:59:04.618Z,28.24
2023-05-21T16:01:33.395Z,28.20
2023-05-21T16:04:03.521Z,28.15
2023-05-21T16:06:31.714Z,28.21
2023-05-21T16:09:00.553Z,28.25
2023-05-21T16:11:29.478Z,28.28
2023-05-21T16:13:57.452Z,28.42
2023-05-21T16:16:25.731Z,28.60
2023-05-21T16:18:54.422Z,28.68
2023-05-21T16:21:22.471Z,28.66
2023-05-21T16:23:50.903Z,28.59
2023-05-21T16:26:18.891Z,28.52
2023-05-21T16:28:47.050Z,28.51
2023-05-21T16:31:15.196Z,28.53
2023-05-21T16:33:43.380Z,28.55
2023-05-21T16:36:11.480Z,28.57
2023-05-21T16:38:39.962Z,28.59
2023-05-21T16:41:08.024Z,28.54
2023-05-21T16:43:36.398Z,28.46
2023-05-21T16:46:04.420Z,28.30
2023-05-21T16:48:32.955Z,28.15
2023-05-21T16:51:01.145Z,28.01
2023-05-21T16:53:29.151Z,27.89
2023-05-21T16:55:57.133Z,27.82
2023-05-21T16:58:25.281Z,27.73
2023-05-21T17:00:53.331Z,27.71
2023-05-21T17:03:21.514Z,27.61
2023-05-21T17:05:49.904Z,27.51
2023-05-21T17:08:17.994Z,27.54
2023-05-21T17:10:45.966Z,27.45
2023-05-21T17:13:21.497Z,27.38
2023-05-21T17:15:51.631Z,27.36
2023-05-21T17:18:19.853Z,27.48
2023-05-21T17:20:47.920Z,27.72
2023-05-21T17:23:16.320Z,27.80
2023-05-21T17:25:45.512Z,27.90
2023-05-21T17:28:13.682Z,28.26
2023-05-21T17:30:43.301Z,28.44
2023-05-21T17:33:12.352Z,28.53
2023-05-21T17:35:40.516Z,28.47
2023-05-21T17:38:08.811Z,28.14
2023-05-21T17:40:36.979Z,27.84
2023-05-21T17:43:05.268Z,27.54
2023-05-21T17:45:33.441Z,27.24
2023-05-21T17:48:01.603Z,26.72
2023-05-21T17:50:30.030Z,26.08
2023-05-21T17:52:58.090Z,25.41
2023-05-21T17:55:26.066Z,24.87
2023-05-21T17:57:54.033Z,24.39
2023-05-21T18:00:22.314Z,23.91
2023-05-21T18:02:50.359Z,23.42
2023-05-21T18:05:18.948Z,22.99
2023-05-21T18:07:47.106Z,22.58
2023-05-21T18:10:16.092Z,22.26
2023-05-21T18:12:47.116Z,21.95
2023-05-21T18:15:15.822Z,21.66
2023-05-21T18:17:44.224Z,21.44
2023-05-21T18:20:12.970Z,21.26
2023-05-21T18:22:41.006Z,21.11
2023-05-21T18:25:09.564Z,20.98
2023-05-21T18:27:37.545Z,20.83
2023-05-21T18:30:07.015Z,20.69
2023-05-21T18:32:35.171Z,20.54
2023-05-21T18:35:03.519Z,20.42
2023-05-21T18:37:31.538Z,20.28
2023-05-21T18:39:59.551Z,20.19
2023-05-21T18:42:28.367Z,20.06
2023-05-21T18:44:56.455Z,19.93
2023-05-21T18:47:25.096Z,19.81
2023-05-21T18:49:53.109Z,19.65
2023-05-21T18:52:21.540Z,19.45
2023-05-21T18:54:49.893Z,19.26
2023-05-21T18:57:18.747Z,19.09
2023-05-21T18:59:47.528Z,18.93
2023-05-21T19:02:16.136Z,18.77
2023-05-21T19:04:44.670Z,18.64
2023-05-21T19:07:13.322Z,18.52
2023-05-21T19:09:41.844Z,18.41
2023-05-21T19:12:10.276Z,18.28
2023-05-21T19:14:39.153Z,18.15
2023-05-21T19:17:08.591Z,18.06
2023-05-21T19:19:36.734Z,18.02
2023-05-21T19:22:05.109Z,17.98
2023-05-21T19:24:33.226Z,17.91
2023-05-21T19:27:01.330Z,17.83
2023-05-21T19:29:29.308Z,17.76
2023-05-21T19:31:57.454Z,17.71
2023-05-21T19:34:26.895Z,17.65
2023-05-21T19:36:54.945Z,17.59
2023-05-21T19:39:23.420Z,17.54
2023-05-21T19:41:53.048Z,17.52
2023-05-21T19:44:21.083Z,17.47
2023-05-21T19:46:50.294Z,17.41
2023-05-21T19:49:20.087Z,17.37
2023-05-21T19:51:49.513Z,17.33
2023-05-21T19:54:18.677Z,17.30
2023-05-21T19:56:46.947Z,17.27
2023-05-21T19:59:14.928Z,17.25
2023-05-21T20:01:44.327Z,17.23
2023-05-21T20:04:13.465Z,17.23
2023-05-21T20:06:41.617Z,17.23
2023-05-21T20:09:12.090Z,17.21
2023-05-21T20:11:42.369Z,17.17
2023-05-21T20:14:10.822Z,17.11
2023-05-21T20:16:38.863Z,17.05
2023-05-21T20:19:12.667Z,16.98
2023-05-21T20:21:40.836Z,16.92
2023-05-21T20:24:08.912Z,16.85
2023-05-21T20:26:37.035Z,16.78
2023-05-21T20:29:06.618Z,16.70
2023-05-21T20:31:35.024Z,16.63
2023-05-21T20:34:07.759Z,16.56
2023-05-21T20:36:36.494Z,16.48
2023-05-21T20:39:05.131Z,16.40
2023-05-21T20:41:37.575Z,16.31
2023-05-21T20:44:06.357Z,16.23
2023-05-21T20:46:38.911Z,16.16
2023-05-21T20:49:08.101Z,16.09
2023-05-21T20:51:36.172Z,16.03
2023-05-21T20:54:04.586Z,15.99
2023-05-21T20:56:42.113Z,15.95
2023-05-21T20:59:12.314Z,15.90
2023-05-21T21:01:41.614Z,15.85
2023-05-21T21:04:10.303Z,15.81
2023-05-21T21:06:39.516Z,15.77
2023-05-21T21:09:08.615Z,15.74
2023-05-21T21:11:37.123Z,15.71
2023-05-21T21:14:05.265Z,15.66
2023-05-21T21:16:33.279Z,15.62
2023-05-21T21:19:01.396Z,15.59
2023-05-21T21:21:29.523Z,15.54
2023-05-21T21:23:57.537Z,15.49
2023-05-21T21:26:25.572Z,15.44
2023-05-21T21:28:53.500Z,15.39
2023-05-21T21:31:21.482Z,15.33
2023-05-21T21:33:49.470Z,15.27
2023-05-21T21:36:17.479Z,15.22
2023-05-21T21:38:45.406Z,15.19
2023-05-21T21:41:13.986Z,15.15
2023-05-21T21:43:42.002Z,15.11
2023-05-21T21:46:10.125Z,15.06
2023-05-21T21:48:38.121Z,15.00
2023-05-21T21:51:08.330Z,14.97
2023-05-21T21:53:36.263Z,14.94
2023-05-21T21:56:04.404Z,14.92
2023-05-21T21:58:32.336Z,14.92
2023-05-21T22:01:00.732Z,14.95
2023-05-21T22:03:32.694Z,14.98
2023-05-21T22:06:01.256Z,15.01
2023-05-21T22:08:29.394Z,15.05
2023-05-21T22:10:57.502Z,15.07
2023-05-21T22:13:27.377Z,15.12
2023-05-21T22:15:57.486Z,15.16
2023-05-21T22:18:39.590Z,15.19
2023-05-21T22:21:14.395Z,15.23
2023-05-21T22:23:42.566Z,15.28
2023-05-21T22:26:10.574Z,15.31
2023-05-21T22:28:38.535Z,15.34
2023-05-21T22:31:07.882Z,15.36
2023-05-21T22:33:36.732Z,15.37
2023-05-21T22:36:05.349Z,15.39
2023-05-21T22:38:33.405Z,15.38
2023-05-21T22:41:01.494Z,15.38
2023-05-21T22:43:29.547Z,15.36
2023-05-21T22:45:57.485Z,15.35
2023-05-21T22:48:26.439Z,15.34
2023-05-21T22:50:54.969Z,15.32
2023-05-21T22:53:23.838Z,15.31
2023-05-21T22:55:52.746Z,15.30
2023-05-21T22:58:20.689Z,15.29
2023-05-21T23:00:48.598Z,15.29
2023-05-21T23:03:16.840Z,15.28
2023-05-21T23:05:45.662Z,15.28
2023-05-21T23:08:14.145Z,15.27
2023-05-21T23:10:42.145Z,15.26
2023-05-21T23:13:10.275Z,15.24
2023-05-21T23:15:39.145Z,15.23
2023-05-21T23:18:08.768Z,15.21
2023-05-21T23:20:37.463Z,15.16
2023-05-21T23:23:06.149Z,15.12
2023-05-21T23:25:34.983Z,15.07
2023-05-21T23:28:05.832Z,15.04
2023-05-21T23:30:34.240Z,15.00
2023-05-21T23:33:02.878Z,14.97
2023-05-21T23:35:34.075Z,14.95
2023-05-21T23:38:02.541Z,14.92
2023-05-21T23:40:30.504Z,14.88
2023-05-21T23:42:58.541Z,14.85
2023-05-21T23:45:26.527Z,14.81
2023-05-21T23:47:54.506Z,14.77
2023-05-21T23:50:24.945Z,14.72
2023-05-21T23:52:52.977Z,14.69
2023-05-21T23:55:20.999Z,14.66
2023-05-21T23:57:48.969Z,14.63
